sensor_id;sensor_type;location;lat;lon;timestamp;pressure;altitude;pressure_sealevel;temperature;humidity
80644;BME280;70010;60.224;24.712;2023-06-10T00:01:08;102636.37;;;4.81;55.33
80644;BME280;70010;60.224;24.712;2023-06-10T00:03:33;102637.35;;;4.73;53.71
80644;BME280;70010;60.224;24.712;2023-06-10T00:05:59;102638.30;;;4.32;55.45
80644;BME280;70010;60.224;24.712;2023-06-10T00:08:24;102639.82;;;4.95;54.43
80644;BME280;70010;60.224;24.712;2023-06-10T00:10:49;102639.20;;;4.67;55.10
80644;BME280;70010;60.224;24.712;2023-06-10T00:13:15;102638.08;;;4.21;54.91
80644;BME280;70010;60.224;24.712;2023-06-10T00:15:40;102640.91;;;4.34;54.74
80644;BME280;70010;60.224;24.712;2023-06-10T00:18:06;102644.93;;;3.95;55.70
80644;BME280;70010;60.224;24.712;2023-06-10T00:20:31;102647.28;;;4.27;54.54
80644;BME280;70010;60.224;24.712;2023-06-10T00:22:57;102647.65;;;4.43;54.69
80644;BME280;70010;60.224;24.712;2023-06-10T00:25:22;102649.85;;;4.35;55.56
80644;BME280;70010;60.224;24.712;2023-06-10T00:27:47;102656.48;;;4.08;56.67
80644;BME280;70010;60.224;24.712;2023-06-10T00:30:13;102659.90;;;3.88;57.40
80644;BME280;70010;60.224;24.712;2023-06-10T00:32:38;102658.53;;;4.42;55.53
80644;BME280;70010;60.224;24.712;2023-06-10T00:35:04;102663.23;;;4.82;53.51
80644;BME280;70010;60.224;24.712;2023-06-10T00:37:28;102664.85;;;4.22;56.83
80644;BME280;70010;60.224;24.712;2023-06-10T00:39:54;102669.69;;;3.64;57.85
80644;BME280;70010;60.224;24.712;2023-06-10T00:42:19;102666.12;;;4.26;56.24
80644;BME280;70010;60.224;24.712;2023-06-10T00:44:45;102668.58;;;3.64;57.56
80644;BME280;70010;60.224;24.712;2023-06-10T00:47:10;102671.94;;;3.78;58.08
80644;BME280;70010;60.224;24.712;2023-06-10T00:49:35;102673.18;;;3.61;57.77
80644;BME280;70010;60.224;24.712;2023-06-10T00:52:01;102678.05;;;3.66;58.11
80644;BME280;70010;60.224;24.712;2023-06-10T00:54:26;102678.92;;;3.36;58.63
80644;BME280;70010;60.224;24.712;2023-06-10T00:56:51;102678.22;;;4.13;55.89
80644;BME280;70010;60.224;24.712;2023-06-10T00:59:17;102681.86;;;3.76;57.13
80644;BME280;70010;60.224;24.712;2023-06-10T01:01:42;102685.05;;;3.45;58.37
80644;BME280;70010;60.224;24.712;2023-06-10T01:04:08;102685.83;;;3.51;57.84
80644;BME280;70010;60.224;24.712;2023-06-10T01:06:40;102683.65;;;3.71;57.24
80644;BME280;70010;60.224;24.712;2023-06-10T01:09:04;102687.58;;;3.60;57.98
80644;BME280;70010;60.224;24.712;2023-06-10T01:11:28;102688.30;;;3.34;57.54
80644;BME280;70010;60.224;24.712;2023-06-10T01:13:50;102691.53;;;3.47;58.31
80644;BME280;70010;60.224;24.712;2023-06-10T01:16:15;102693.40;;;3.16;58.06
80644;BME280;70010;60.224;24.712;2023-06-10T01:18:40;102693.98;;;3.37;57.62
80644;BME280;70010;60.224;24.712;2023-06-10T01:21:05;102696.11;;;3.18;58.26
80644;BME280;70010;60.224;24.712;2023-06-10T01:23:31;102695.77;;;3.52;58.46
80644;BME280;70010;60.224;24.712;2023-06-10T01:26:01;102695.30;;;3.15;58.88
80644;BME280;70010;60.224;24.712;2023-06-10T01:28:27;102698.94;;;3.45;58.73
80644;BME280;70010;60.224;24.712;2023-06-10T01:31:02;102697.44;;;3.37;58.97
80644;BME280;70010;60.224;24.712;2023-06-10T01:33:13;102701.24;;;3.29;58.70
80644;BME280;70010;60.224;24.712;2023-06-10T01:35:38;102704.33;;;3.45;58.42
80644;BME280;70010;60.224;24.712;2023-06-10T01:38:03;102705.42;;;3.40;58.52
80644;BME280;70010;60.224;24.712;2023-06-10T01:40:29;102707.86;;;3.17;58.75
80644;BME280;70010;60.224;24.712;2023-06-10T01:42:54;102711.12;;;3.25;58.98
80644;BME280;70010;60.224;24.712;2023-06-10T01:45:19;102717.78;;;3.44;58.64
80644;BME280;70010;60.224;24.712;2023-06-10T01:47:44;102719.21;;;3.34;58.79
80644;BME280;70010;60.224;24.712;2023-06-10T01:50:10;102721.33;;;3.84;58.10
80644;BME280;70010;60.224;24.712;2023-06-10T01:52:35;102721.23;;;3.53;58.33
80644;BME280;70010;60.224;24.712;2023-06-10T01:55:01;102721.77;;;3.32;58.92
80644;BME280;70010;60.224;24.712;2023-06-10T01:57:27;102720.09;;;2.93;59.46
80644;BME280;70010;60.224;24.712;2023-06-10T01:59:52;102720.76;;;3.19;60.03
80644;BME280;70010;60.224;24.712;2023-06-10T02:02:17;102714.81;;;4.11;56.99
80644;BME280;70010;60.224;24.712;2023-06-10T02:04:43;102714.75;;;4.23;56.74
80644;BME280;70010;60.224;24.712;2023-06-10T02:07:08;102719.11;;;3.62;57.88
80644;BME280;70010;60.224;24.712;2023-06-10T02:09:34;102721.19;;;3.52;58.31
80644;BME280;70010;60.224;24.712;2023-06-10T02:11:58;102722.64;;;3.69;58.94
80644;BME280;70010;60.224;24.712;2023-06-10T02:14:24;102729.70;;;3.85;58.08
80644;BME280;70010;60.224;24.712;2023-06-10T02:16:49;102727.74;;;3.42;58.62
80644;BME280;70010;60.224;24.712;2023-06-10T02:19:14;102729.18;;;3.76;57.83
80644;BME280;70010;60.224;24.712;2023-06-10T02:21:40;102725.05;;;3.80;57.50
80644;BME280;70010;60.224;24.712;2023-06-10T02:24:06;102734.70;;;3.63;58.32
80644;BME280;70010;60.224;24.712;2023-06-10T02:26:31;102733.22;;;3.86;57.81
80644;BME280;70010;60.224;24.712;2023-06-10T02:28:56;102734.87;;;3.62;58.28
80644;BME280;70010;60.224;24.712;2023-06-10T02:31:21;102734.89;;;3.76;58.05
80644;BME280;70010;60.224;24.712;2023-06-10T02:33:47;102740.40;;;3.97;58.24
80644;BME280;70010;60.224;24.712;2023-06-10T02:36:12;102743.66;;;3.82;58.15
80644;BME280;70010;60.224;24.712;2023-06-10T02:38:38;102743.99;;;3.81;58.27
80644;BME280;70010;60.224;24.712;2023-06-10T02:41:03;102749.25;;;3.90;57.95
80644;BME280;70010;60.224;24.712;2023-06-10T02:43:28;102748.89;;;4.14;57.32
80644;BME280;70010;60.224;24.712;2023-06-10T02:45:54;102746.73;;;4.17;57.37
80644;BME280;70010;60.224;24.712;2023-06-10T02:48:19;102746.07;;;4.34;56.46
80644;BME280;70010;60.224;24.712;2023-06-10T02:50:44;102750.93;;;4.09;56.00
80644;BME280;70010;60.224;24.712;2023-06-10T02:53:09;102751.17;;;3.96;54.90
80644;BME280;70010;60.224;24.712;2023-06-10T02:55:35;102747.98;;;4.66;53.41
80644;BME280;70010;60.224;24.712;2023-06-10T02:58:00;102747.75;;;4.67;53.42
80644;BME280;70010;60.224;24.712;2023-06-10T03:00:25;102751.70;;;4.50;53.59
80644;BME280;70010;60.224;24.712;2023-06-10T03:02:51;102753.34;;;4.84;52.38
80644;BME280;70010;60.224;24.712;2023-06-10T03:05:16;102754.68;;;5.20;51.14
80644;BME280;70010;60.224;24.712;2023-06-10T03:07:41;102757.20;;;4.96;51.57
80644;BME280;70010;60.224;24.712;2023-06-10T03:10:08;102757.65;;;5.13;51.04
80644;BME280;70010;60.224;24.712;2023-06-10T03:12:32;102761.27;;;4.92;51.49
80644;BME280;70010;60.224;24.712;2023-06-10T03:14:58;102763.09;;;4.59;52.23
80644;BME280;70010;60.224;24.712;2023-06-10T03:17:23;102763.97;;;4.64;52.45
80644;BME280;70010;60.224;24.712;2023-06-10T03:19:48;102768.19;;;5.11;52.61
80644;BME280;70010;60.224;24.712;2023-06-10T03:22:16;102769.55;;;4.84;52.80
80644;BME280;70010;60.224;24.712;2023-06-10T03:24:40;102772.36;;;5.12;53.07
80644;BME280;70010;60.224;24.712;2023-06-10T03:27:06;102771.52;;;5.41;51.84
80644;BME280;70010;60.224;24.712;2023-06-10T03:29:30;102768.43;;;5.36;51.84
80644;BME280;70010;60.224;24.712;2023-06-10T03:31:55;102767.92;;;5.44;51.89
80644;BME280;70010;60.224;24.712;2023-06-10T03:34:20;102769.68;;;5.57;51.78
80644;BME280;70010;60.224;24.712;2023-06-10T03:36:46;102770.25;;;5.39;52.57
80644;BME280;70010;60.224;24.712;2023-06-10T03:39:11;102770.04;;;5.28;52.85
80644;BME280;70010;60.224;24.712;2023-06-10T03:41:36;102771.08;;;5.51;52.30
80644;BME280;70010;60.224;24.712;2023-06-10T03:44:02;102773.41;;;5.84;52.37
80644;BME280;70010;60.224;24.712;2023-06-10T03:46:27;102772.66;;;5.57;52.12
80644;BME280;70010;60.224;24.712;2023-06-10T03:48:53;102773.32;;;5.75;51.52
80644;BME280;70010;60.224;24.712;2023-06-10T03:51:18;102774.14;;;5.81;51.50
80644;BME280;70010;60.224;24.712;2023-06-10T03:53:43;102773.70;;;5.75;51.68
80644;BME280;70010;60.224;24.712;2023-06-10T03:56:09;102774.71;;;5.93;50.73
80644;BME280;70010;60.224;24.712;2023-06-10T03:58:34;102778.81;;;5.87;51.55
80644;BME280;70010;60.224;24.712;2023-06-10T04:00:59;102777.06;;;6.24;50.95
80644;BME280;70010;60.224;24.712;2023-06-10T04:03:24;102778.68;;;6.26;50.93
80644;BME280;70010;60.224;24.712;2023-06-10T04:05:50;102777.86;;;6.13;50.60
80644;BME280;70010;60.224;24.712;2023-06-10T04:08:15;102780.22;;;7.65;47.95
80644;BME280;70010;60.224;24.712;2023-06-10T04:10:40;102776.96;;;8.53;46.01
80644;BME280;70010;60.224;24.712;2023-06-10T04:13:05;102779.18;;;6.54;49.47
80644;BME280;70010;60.224;24.712;2023-06-10T04:15:31;102783.52;;;6.32;50.07
80644;BME280;70010;60.224;24.712;2023-06-10T04:17:56;102780.48;;;6.93;49.29
80644;BME280;70010;60.224;24.712;2023-06-10T04:20:21;102784.24;;;6.89;49.34
80644;BME280;70010;60.224;24.712;2023-06-10T04:22:47;102786.27;;;6.25;50.59
80644;BME280;70010;60.224;24.712;2023-06-10T04:25:12;102787.95;;;6.65;49.90
80644;BME280;70010;60.224;24.712;2023-06-10T04:27:38;102792.19;;;7.28;48.80
80644;BME280;70010;60.224;24.712;2023-06-10T04:30:04;102793.27;;;7.68;46.91
80644;BME280;70010;60.224;24.712;2023-06-10T04:32:28;102795.51;;;8.00;47.03
80644;BME280;70010;60.224;24.712;2023-06-10T04:34:53;102799.42;;;7.58;48.39
80644;BME280;70010;60.224;24.712;2023-06-10T04:37:19;102800.46;;;8.57;45.90
80644;BME280;70010;60.224;24.712;2023-06-10T04:39:44;102802.13;;;8.08;45.71
80644;BME280;70010;60.224;24.712;2023-06-10T04:42:10;102803.41;;;7.59;47.00
80644;BME280;70010;60.224;24.712;2023-06-10T04:44:35;102803.96;;;7.98;47.80
80644;BME280;70010;60.224;24.712;2023-06-10T04:47:00;102801.79;;;7.53;48.15
80644;BME280;70010;60.224;24.712;2023-06-10T04:49:26;102797.77;;;8.10;47.16
80644;BME280;70010;60.224;24.712;2023-06-10T04:51:51;102793.28;;;10.54;41.72
80644;BME280;70010;60.224;24.712;2023-06-10T04:54:16;102793.62;;;11.12;40.75
80644;BME280;70010;60.224;24.712;2023-06-10T04:56:42;102800.98;;;9.55;42.74
80644;BME280;70010;60.224;24.712;2023-06-10T04:59:07;102800.58;;;10.63;40.72
80644;BME280;70010;60.224;24.712;2023-06-10T05:01:32;102801.72;;;10.32;40.30
80644;BME280;70010;60.224;24.712;2023-06-10T05:03:58;102805.25;;;10.37;41.38
80644;BME280;70010;60.224;24.712;2023-06-10T05:06:23;102804.03;;;10.57;41.29
80644;BME280;70010;60.224;24.712;2023-06-10T05:08:48;102804.38;;;9.79;42.78
80644;BME280;70010;60.224;24.712;2023-06-10T05:11:13;102803.25;;;10.24;41.06
80644;BME280;70010;60.224;24.712;2023-06-10T05:13:39;102801.77;;;10.60;39.20
80644;BME280;70010;60.224;24.712;2023-06-10T05:16:04;102805.15;;;12.63;36.22
80644;BME280;70010;60.224;24.712;2023-06-10T05:18:29;102803.14;;;13.00;34.71
80644;BME280;70010;60.224;24.712;2023-06-10T05:20:55;102802.28;;;11.79;34.13
80644;BME280;70010;60.224;24.712;2023-06-10T05:23:20;102806.23;;;9.27;39.21
80644;BME280;70010;60.224;24.712;2023-06-10T05:25:45;102806.84;;;11.91;35.82
80644;BME280;70010;60.224;24.712;2023-06-10T05:28:11;102803.80;;;13.70;32.03
80644;BME280;70010;60.224;24.712;2023-06-10T05:30:36;102810.84;;;12.10;32.36
80644;BME280;70010;60.224;24.712;2023-06-10T05:33:02;102815.68;;;10.06;35.35
80644;BME280;70010;60.224;24.712;2023-06-10T05:35:27;102817.24;;;10.18;35.58
80644;BME280;70010;60.224;24.712;2023-06-10T05:37:52;102818.29;;;10.19;35.86
80644;BME280;70010;60.224;24.712;2023-06-10T05:40:17;102816.73;;;10.82;34.37
80644;BME280;70010;60.224;24.712;2023-06-10T05:42:43;102816.36;;;9.86;35.42
80644;BME280;70010;60.224;24.712;2023-06-10T05:45:09;102815.76;;;12.40;31.68
80644;BME280;70010;60.224;24.712;2023-06-10T05:47:33;102817.82;;;11.07;33.96
80644;BME280;70010;60.224;24.712;2023-06-10T05:49:59;102820.71;;;12.63;31.48
80644;BME280;70010;60.224;24.712;2023-06-10T05:52:24;102819.47;;;10.67;32.50
80644;BME280;70010;60.224;24.712;2023-06-10T05:54:50;102820.12;;;12.13;31.72
80644;BME280;70010;60.224;24.712;2023-06-10T05:57:15;102811.96;;;13.91;28.93
80644;BME280;70010;60.224;24.712;2023-06-10T05:59:40;102813.17;;;14.20;28.23
80644;BME280;70010;60.224;24.712;2023-06-10T06:02:05;102813.51;;;13.93;27.90
80644;BME280;70010;60.224;24.712;2023-06-10T06:04:31;102815.23;;;13.20;29.21
80644;BME280;70010;60.224;24.712;2023-06-10T06:06:56;102810.22;;;15.18;26.91
80644;BME280;70010;60.224;24.712;2023-06-10T06:09:21;102820.32;;;12.19;29.68
80644;BME280;70010;60.224;24.712;2023-06-10T06:11:46;102813.16;;;15.13;26.29
80644;BME280;70010;60.224;24.712;2023-06-10T06:14:12;102821.45;;;12.21;29.00
80644;BME280;70010;60.224;24.712;2023-06-10T06:16:37;102819.60;;;13.24;28.15
80644;BME280;70010;60.224;24.712;2023-06-10T06:19:02;102821.34;;;13.06;28.39
80644;BME280;70010;60.224;24.712;2023-06-10T06:21:27;102829.69;;;12.25;28.94
80644;BME280;70010;60.224;24.712;2023-06-10T06:23:53;102828.09;;;12.46;29.17
80644;BME280;70010;60.224;24.712;2023-06-10T06:26:18;102825.49;;;11.24;29.93
80644;BME280;70010;60.224;24.712;2023-06-10T06:28:43;102821.75;;;13.24;28.04
80644;BME280;70010;60.224;24.712;2023-06-10T06:31:09;102819.25;;;14.25;26.25
80644;BME280;70010;60.224;24.712;2023-06-10T06:33:34;102826.74;;;11.29;29.95
80644;BME280;70010;60.224;24.712;2023-06-10T06:35:59;102819.39;;;14.23;27.15
80644;BME280;70010;60.224;24.712;2023-06-10T06:38:24;102821.97;;;14.82;26.22
80644;BME280;70010;60.224;24.712;2023-06-10T06:40:50;102824.74;;;12.95;27.67
80644;BME280;70010;60.224;24.712;2023-06-10T06:43:15;102821.61;;;15.49;25.19
80644;BME280;70010;60.224;24.712;2023-06-10T06:45:40;102828.85;;;12.43;29.55
80644;BME280;70010;60.224;24.712;2023-06-10T06:48:06;102832.27;;;12.15;29.20
80644;BME280;70010;60.224;24.712;2023-06-10T06:50:31;102831.29;;;12.10;29.23
80644;BME280;70010;60.224;24.712;2023-06-10T06:52:56;102830.76;;;15.11;25.71
80644;BME280;70010;60.224;24.712;2023-06-10T06:55:21;102834.55;;;14.14;26.43
80644;BME280;70010;60.224;24.712;2023-06-10T06:57:47;102834.82;;;15.46;25.43
80644;BME280;70010;60.224;24.712;2023-06-10T07:00:13;102841.88;;;13.96;25.86
80644;BME280;70010;60.224;24.712;2023-06-10T07:02:37;102840.01;;;12.84;27.29
80644;BME280;70010;60.224;24.712;2023-06-10T07:05:03;102841.70;;;14.42;25.71
80644;BME280;70010;60.224;24.712;2023-06-10T07:07:28;102843.29;;;13.44;26.64
80644;BME280;70010;60.224;24.712;2023-06-10T07:09:53;102841.99;;;15.50;24.75
80644;BME280;70010;60.224;24.712;2023-06-10T07:12:19;102846.93;;;12.73;27.92
80644;BME280;70010;60.224;24.712;2023-06-10T07:14:44;102838.46;;;13.83;26.96
80644;BME280;70010;60.224;24.712;2023-06-10T07:17:09;102842.52;;;15.06;26.29
80644;BME280;70010;60.224;24.712;2023-06-10T07:19:34;102842.31;;;13.69;26.72
80644;BME280;70010;60.224;24.712;2023-06-10T07:22:00;102843.26;;;14.61;26.51
80644;BME280;70010;60.224;24.712;2023-06-10T07:24:25;102846.03;;;15.47;25.08
80644;BME280;70010;60.224;24.712;2023-06-10T07:26:50;102850.05;;;12.73;28.31
80644;BME280;70010;60.224;24.712;2023-06-10T07:29:15;102850.79;;;14.24;26.77
80644;BME280;70010;60.224;24.712;2023-06-10T07:31:41;102857.38;;;13.08;28.30
80644;BME280;70010;60.224;24.712;2023-06-10T07:34:06;102858.59;;;13.16;27.86
80644;BME280;70010;60.224;24.712;2023-06-10T07:36:31;102864.24;;;12.75;28.28
80644;BME280;70010;60.224;24.712;2023-06-10T07:38:57;102862.21;;;12.56;27.69
80644;BME280;70010;60.224;24.712;2023-06-10T07:41:23;102867.39;;;12.56;28.31
80644;BME280;70010;60.224;24.712;2023-06-10T07:43:47;102869.44;;;12.27;28.73
80644;BME280;70010;60.224;24.712;2023-06-10T07:46:12;102871.46;;;13.16;26.70
80644;BME280;70010;60.224;24.712;2023-06-10T07:48:38;102875.08;;;12.11;28.75
80644;BME280;70010;60.224;24.712;2023-06-10T07:51:03;102877.89;;;13.49;27.01
80644;BME280;70010;60.224;24.712;2023-06-10T07:53:28;102876.82;;;12.34;27.56
80644;BME280;70010;60.224;24.712;2023-06-10T07:55:54;102876.12;;;12.17;28.42
80644;BME280;70010;60.224;24.712;2023-06-10T07:58:19;102870.92;;;14.06;26.16
80644;BME280;70010;60.224;24.712;2023-06-10T08:00:44;102880.27;;;12.62;27.88
80644;BME280;70010;60.224;24.712;2023-06-10T08:03:10;102874.92;;;15.03;24.99
80644;BME280;70010;60.224;24.712;2023-06-10T08:05:35;102877.96;;;15.54;24.61
80644;BME280;70010;60.224;24.712;2023-06-10T08:08:00;102876.20;;;15.33;24.40
80644;BME280;70010;60.224;24.712;2023-06-10T08:10:25;102873.96;;;14.57;26.09
80644;BME280;70010;60.224;24.712;2023-06-10T08:12:51;102874.16;;;13.93;26.76
80644;BME280;70010;60.224;24.712;2023-06-10T08:15:16;102884.01;;;13.66;27.26
80644;BME280;70010;60.224;24.712;2023-06-10T08:17:41;102879.37;;;13.59;27.17
80644;BME280;70010;60.224;24.712;2023-06-10T08:20:07;102882.61;;;15.59;25.00
80644;BME280;70010;60.224;24.712;2023-06-10T08:22:32;102882.85;;;14.00;26.07
80644;BME280;70010;60.224;24.712;2023-06-10T08:24:57;102886.96;;;13.79;26.05
80644;BME280;70010;60.224;24.712;2023-06-10T08:27:23;102888.12;;;13.14;26.50
80644;BME280;70010;60.224;24.712;2023-06-10T08:29:48;102883.77;;;15.87;24.10
80644;BME280;70010;60.224;24.712;2023-06-10T08:32:13;102884.59;;;16.74;22.70
80644;BME280;70010;60.224;24.712;2023-06-10T08:34:39;102883.01;;;15.53;23.33
80644;BME280;70010;60.224;24.712;2023-06-10T08:37:04;102885.86;;;14.01;25.72
80644;BME280;70010;60.224;24.712;2023-06-10T08:39:29;102886.30;;;14.09;25.72
80644;BME280;70010;60.224;24.712;2023-06-10T08:42:01;102881.06;;;16.15;23.28
80644;BME280;70010;60.224;24.712;2023-06-10T08:44:25;102880.95;;;14.57;25.12
80644;BME280;70010;60.224;24.712;2023-06-10T08:46:46;102885.04;;;13.59;26.21
80644;BME280;70010;60.224;24.712;2023-06-10T08:49:10;102877.79;;;14.40;26.07
80644;BME280;70010;60.224;24.712;2023-06-10T08:51:35;102881.94;;;14.81;25.71
80644;BME280;70010;60.224;24.712;2023-06-10T08:54:04;102879.86;;;16.65;23.02
80644;BME280;70010;60.224;24.712;2023-06-10T08:56:28;102882.25;;;15.30;24.36
80644;BME280;70010;60.224;24.712;2023-06-10T08:58:52;102891.96;;;14.04;26.76
80644;BME280;70010;60.224;24.712;2023-06-10T09:01:17;102893.17;;;13.81;26.82
80644;BME280;70010;60.224;24.712;2023-06-10T09:03:42;102878.35;;;14.59;26.43
80644;BME280;70010;60.224;24.712;2023-06-10T09:06:07;102889.06;;;16.87;23.39
80644;BME280;70010;60.224;24.712;2023-06-10T09:08:33;102883.48;;;17.21;22.75
80644;BME280;70010;60.224;24.712;2023-06-10T09:10:58;102888.59;;;15.74;24.27
80644;BME280;70010;60.224;24.712;2023-06-10T09:13:23;102895.28;;;13.80;27.28
80644;BME280;70010;60.224;24.712;2023-06-10T09:15:48;102896.75;;;13.81;27.70
80644;BME280;70010;60.224;24.712;2023-06-10T09:18:14;102891.77;;;13.21;28.93
80644;BME280;70010;60.224;24.712;2023-06-10T09:20:39;102893.25;;;14.78;26.40
80644;BME280;70010;60.224;24.712;2023-06-10T09:23:05;102889.76;;;15.03;25.47
80644;BME280;70010;60.224;24.712;2023-06-10T09:25:34;102892.86;;;14.86;26.24
80644;BME280;70010;60.224;24.712;2023-06-10T09:27:55;102893.74;;;16.04;24.39
80644;BME280;70010;60.224;24.712;2023-06-10T09:30:25;102889.94;;;15.15;25.26
80644;BME280;70010;60.224;24.712;2023-06-10T09:32:46;102889.85;;;16.12;23.82
80644;BME280;70010;60.224;24.712;2023-06-10T09:35:11;102893.89;;;18.12;21.36
80644;BME280;70010;60.224;24.712;2023-06-10T09:37:38;102895.97;;;15.24;24.87
80644;BME280;70010;60.224;24.712;2023-06-10T09:40:03;102890.77;;;15.63;25.02
80644;BME280;70010;60.224;24.712;2023-06-10T09:42:26;102888.73;;;14.81;25.33
80644;BME280;70010;60.224;24.712;2023-06-10T09:44:52;102892.49;;;14.33;26.78
80644;BME280;70010;60.224;24.712;2023-06-10T09:47:20;102885.39;;;15.15;25.27
80644;BME280;70010;60.224;24.712;2023-06-10T09:49:42;102888.19;;;15.23;25.23
80644;BME280;70010;60.224;24.712;2023-06-10T09:52:07;102881.82;;;16.72;23.53
80644;BME280;70010;60.224;24.712;2023-06-10T09:54:33;102880.99;;;16.38;23.16
80644;BME280;70010;60.224;24.712;2023-06-10T09:56:58;102876.91;;;17.10;22.31
80644;BME280;70010;60.224;24.712;2023-06-10T09:59:28;102879.58;;;16.57;22.87
80644;BME280;70010;60.224;24.712;2023-06-10T10:01:54;102878.88;;;15.41;24.29
80644;BME280;70010;60.224;24.712;2023-06-10T10:04:23;102883.40;;;15.06;24.43
80644;BME280;70010;60.224;24.712;2023-06-10T10:06:39;102882.70;;;16.90;23.12
80644;BME280;70010;60.224;24.712;2023-06-10T10:09:04;102882.88;;;16.43;23.76
80644;BME280;70010;60.224;24.712;2023-06-10T10:11:31;102884.25;;;17.31;23.27
80644;BME280;70010;60.224;24.712;2023-06-10T10:13:55;102885.81;;;16.66;24.15
80644;BME280;70010;60.224;24.712;2023-06-10T10:16:23;102877.56;;;16.93;23.44
80644;BME280;70010;60.224;24.712;2023-06-10T10:18:49;102884.64;;;16.54;23.63
80644;BME280;70010;60.224;24.712;2023-06-10T10:21:13;102882.73;;;15.51;24.92
80644;BME280;70010;60.224;24.712;2023-06-10T10:23:41;102880.11;;;17.16;23.37
80644;BME280;70010;60.224;24.712;2023-06-10T10:26:04;102888.90;;;16.17;24.48
80644;BME280;70010;60.224;24.712;2023-06-10T10:28:33;102889.20;;;14.83;25.53
80644;BME280;70010;60.224;24.712;2023-06-10T10:30:54;102884.16;;;15.02;25.16
80644;BME280;70010;60.224;24.712;2023-06-10T10:33:20;102880.38;;;16.51;23.21
80644;BME280;70010;60.224;24.712;2023-06-10T10:35:43;102874.71;;;19.89;20.12
80644;BME280;70010;60.224;24.712;2023-06-10T10:38:09;102880.41;;;16.70;23.26
80644;BME280;70010;60.224;24.712;2023-06-10T10:40:33;102879.79;;;18.70;21.27
80644;BME280;70010;60.224;24.712;2023-06-10T10:42:59;102877.15;;;15.97;23.47
80644;BME280;70010;60.224;24.712;2023-06-10T10:45:24;102875.37;;;16.20;24.22
80644;BME280;70010;60.224;24.712;2023-06-10T10:47:53;102878.52;;;18.05;22.85
80644;BME280;70010;60.224;24.712;2023-06-10T10:50:16;102877.92;;;17.84;22.58
80644;BME280;70010;60.224;24.712;2023-06-10T10:52:51;102878.02;;;15.98;24.39
80644;BME280;70010;60.224;24.712;2023-06-10T10:55:12;102879.99;;;17.81;22.14
80644;BME280;70010;60.224;24.712;2023-06-10T10:57:30;102878.84;;;17.18;22.75
80644;BME280;70010;60.224;24.712;2023-06-10T10:59:57;102878.81;;;16.09;24.39
80644;BME280;70010;60.224;24.712;2023-06-10T11:04:47;102860.41;;;19.89;20.37
80644;BME280;70010;60.224;24.712;2023-06-10T11:07:11;102868.57;;;17.60;22.73
80644;BME280;70010;60.224;24.712;2023-06-10T11:09:36;102870.88;;;17.54;22.50
80644;BME280;70010;60.224;24.712;2023-06-10T11:12:02;102859.52;;;20.65;19.08
80644;BME280;70010;60.224;24.712;2023-06-10T11:14:28;102861.54;;;17.30;22.85
80644;BME280;70010;60.224;24.712;2023-06-10T11:16:52;102862.96;;;19.24;20.53
80644;BME280;70010;60.224;24.712;2023-06-10T11:24:12;102859.84;;;17.77;21.55
80644;BME280;70010;60.224;24.712;2023-06-10T11:26:33;102851.79;;;19.75;20.28
80644;BME280;70010;60.224;24.712;2023-06-10T11:29:05;102852.81;;;19.30;20.42
80644;BME280;70010;60.224;24.712;2023-06-10T11:31:25;102854.52;;;17.98;22.23
80644;BME280;70010;60.224;24.712;2023-06-10T11:33:52;102854.26;;;16.73;23.61
80644;BME280;70010;60.224;24.712;2023-06-10T11:36:14;102853.48;;;17.40;23.06
80644;BME280;70010;60.224;24.712;2023-06-10T11:38:40;102859.92;;;17.52;22.30
80644;BME280;70010;60.224;24.712;2023-06-10T11:41:05;102859.85;;;17.85;22.20
80644;BME280;70010;60.224;24.712;2023-06-10T11:43:30;102852.05;;;19.85;20.14
80644;BME280;70010;60.224;24.712;2023-06-10T11:45:56;102852.06;;;20.14;20.12
80644;BME280;70010;60.224;24.712;2023-06-10T11:48:20;102853.09;;;19.20;20.86
80644;BME280;70010;60.224;24.712;2023-06-10T11:50:46;102852.24;;;18.43;21.03
80644;BME280;70010;60.224;24.712;2023-06-10T11:53:11;102846.96;;;19.76;20.18
80644;BME280;70010;60.224;24.712;2023-06-10T11:55:41;102842.99;;;20.30;19.31
80644;BME280;70010;60.224;24.712;2023-06-10T11:58:01;102844.20;;;21.99;17.92
80644;BME280;70010;60.224;24.712;2023-06-10T12:00:27;102850.66;;;19.47;19.58
80644;BME280;70010;60.224;24.712;2023-06-10T12:02:56;102842.61;;;21.19;18.38
80644;BME280;70010;60.224;24.712;2023-06-10T12:05:17;102842.79;;;22.26;16.98
80644;BME280;70010;60.224;24.712;2023-06-10T12:07:42;102848.07;;;19.55;19.59
80644;BME280;70010;60.224;24.712;2023-06-10T12:10:08;102847.57;;;17.81;20.72
80644;BME280;70010;60.224;24.712;2023-06-10T12:12:35;102853.73;;;21.58;17.97
80644;BME280;70010;60.224;24.712;2023-06-10T12:14:59;102852.91;;;19.53;19.29
80644;BME280;70010;60.224;24.712;2023-06-10T12:19:49;102847.85;;;19.46;19.28
80644;BME280;70010;60.224;24.712;2023-06-10T12:22:15;102852.97;;;21.76;17.87
80644;BME280;70010;60.224;24.712;2023-06-10T12:24:44;102851.92;;;17.78;21.23
80644;BME280;70010;60.224;24.712;2023-06-10T12:27:11;102853.81;;;20.20;19.23
80644;BME280;70010;60.224;24.712;2023-06-10T12:29:31;102844.33;;;22.00;17.49
80644;BME280;70010;60.224;24.712;2023-06-10T12:31:58;102856.82;;;18.14;21.13
80644;BME280;70010;60.224;24.712;2023-06-10T12:36:48;102848.09;;;18.83;20.22
80644;BME280;70010;60.224;24.712;2023-06-10T12:39:11;102853.41;;;20.15;19.33
80644;BME280;70010;60.224;24.712;2023-06-10T12:41:37;102852.50;;;17.89;20.97
80644;BME280;70010;60.224;24.712;2023-06-10T12:44:02;102841.03;;;21.63;18.34